• Join FlightAware (Why Join?)
  • Login
  • US Flag 
02:36AM EDT


 

Airport Tracker/Info


-or-


 

Live Flight TrackerFlight Track Log ✈ N929SR ✈ 15-Jul-2013 ✈ KRME - KHKS

Flight Track Log - Related Links

Times and Time Zones

All times are in EDT time to prevent confusion due to time zone crossing. See the N929SR flight status page for this flight to view local times or setup timezone preferences in your user account.

Time Position Orientation Groundspeed Altitude Reporting Facility
EDT Latitude Longitude Course Direction KTS MPH feet Rate Location/Type
08:00AM 43.2528 -75.4419 250° West 158 182 1,200  Level Boston Center
08:02AM 43.2136 -75.5856 250° West 260 299 8,000 3,300 Climbing Boston Center
08:03AM 43.1572 -75.6594 224° Southwest 271 312 11,400 2,940 Climbing Boston Center
08:04AM 43.0925 -75.7442 224° Southwest 297 342 13,900 2,400 Climbing Boston Center
08:05AM 42.9997 -75.7789 195° South 324 373 16,300 2,280 Climbing Boston Center
08:06AM 42.8928 -75.7931 186° South 344 396 18,500 2,220 Climbing Boston Center
08:07AM 42.7842 -75.8069 185° South 380 437 20,800 1,980 Climbing Boston Center
08:08AM 42.6981 -75.8247 189° South 393 452 22,500 2,040 Climbing Boston Center
08:09AM 42.5653 -75.8739 195° South 398 458 24,900 2,220 Climbing Boston Center
08:10AM 42.4772 -75.9619 216° Southwest 393 452 27,000 2,040 Climbing Boston Center
08:12AM 42.3189 -76.2169 230° Southwest 414 476 31,500 1,980 Climbing New York Center
08:13AM 42.2428 -76.3311 228° Southwest 419 482 33,500 1,380 Climbing New York Center
08:14AM 42.1642 -76.4531 229° Southwest 419 482 34,300 1,200 Climbing New York Center
08:15AM 42.0814 -76.5772 228° Southwest 431 496 35,900 1,860 Climbing New York Center
08:16AM 42.0003 -76.6986 228° Southwest 444 511 38,100 2,040 Climbing New York Center
08:17AM 41.9236 -76.8144 228° Southwest 439 505 40,000 960 Climbing New York Center
08:18AM 41.8358 -76.9428 227° Southwest 439 505 40,000  Level New York Center
08:19AM 41.7522 -77.0714 229° Southwest 448 516 40,000  Level New York Center
08:20AM 41.6639 -77.2017 228° Southwest 466 536 40,000  Level New York Center
08:21AM 41.5775 -77.3350 229° Southwest 472 543 40,000  Level New York Center
08:22AM 41.4933 -77.4597 228° Southwest 472 543 40,000  Level New York Center
08:23AM 41.4092 -77.5842 228° Southwest 467 537 40,000  Level New York Center
08:26AM 41.2186 -77.8556 227° Southwest 458 527 40,000  Level Cleveland Center
08:27AM 41.1342 -77.9806 228° Southwest 458 527 40,000  Level Cleveland Center
08:28AM 41.0453 -78.1081 227° Southwest 458 527 40,000  Level Cleveland Center
08:29AM 40.9500 -78.2436 227° Southwest 458 527 40,000  Level Cleveland Center
08:30AM 40.8650 -78.3728 229° Southwest 463 533 40,000  Level Cleveland Center
08:31AM 40.7736 -78.4967 226° Southwest 468 539 40,000  Level Cleveland Center
08:32AM 40.6861 -78.6253 228° Southwest 468 539 40,000  Level Cleveland Center
08:33AM 40.5986 -78.7508 227° Southwest 468 539 40,000  Level Cleveland Center
08:34AM 40.5089 -78.8764 227° Southwest 473 544 40,000  Level Cleveland Center
08:35AM 40.4189 -79.0042 227° Southwest 473 544 40,000  Level Cleveland Center
08:36AM 40.3289 -79.1289 227° Southwest 478 550 40,000  Level Cleveland Center
08:37AM 40.2408 -79.2503 226° Southwest 473 544 40,000  Level Cleveland Center
08:38AM 40.1544 -79.3717 227° Southwest 473 544 40,000  Level Cleveland Center
08:39AM 40.0744 -79.4817 226° Southwest 473 544 40,000  Level Cleveland Center
08:40AM 39.9839 -79.6050 226° Southwest 473 544 40,000  Level Cleveland Center
08:41AM 39.8950 -79.7281 227° Southwest 473 544 40,000  Level Cleveland Center
08:42AM 39.8064 -79.8508 227° Southwest 473 544 40,000  Level Cleveland Center
08:44AM 39.5939 -80.1361 226° Southwest 465 535 40,000  Level Indianapolis Center
08:45AM 39.5036 -80.2572 226° Southwest 467 537 40,000  Level Indianapolis Center
08:46AM 39.4136 -80.3800 227° Southwest 470 541 40,000  Level Indianapolis Center
08:47AM 39.3219 -80.5000 225° Southwest 470 541 40,000  Level Indianapolis Center
08:48AM 39.2308 -80.6208 226° Southwest 470 541 40,000  Level Indianapolis Center
08:49AM 39.1222 -80.7656 226° Southwest 466 536 40,000  Level Indianapolis Center
08:50AM 39.0322 -80.8847 226° Southwest 464 534 40,000  Level Indianapolis Center
08:51AM 38.9408 -81.0039 225° Southwest 465 535 40,000  Level Indianapolis Center
08:52AM 38.8492 -81.1233 225° Southwest 466 536 40,000  Level Indianapolis Center
08:53AM 38.7564 -81.2431 225° Southwest 469 540 40,000  Level Indianapolis Center
08:54AM 38.6539 -81.3753 225° Southwest 471 542 40,000  Level Indianapolis Center
08:55AM 38.5756 -81.5106 234° Southwest 471 542 40,000  Level Indianapolis Center
08:56AM 38.4931 -81.6394 231° Southwest 483 556 40,000 60 Level Indianapolis Center
08:57AM 38.4119 -81.7703 232° Southwest 473 544 40,200 480 Climbing Indianapolis Center
08:58AM 38.3306 -81.8967 231° Southwest 461 531 41,000 360 Climbing Indianapolis Center
08:59AM 38.2492 -82.0267 231° Southwest 469 540 41,000  Level Indianapolis Center
09:00AM 38.1503 -82.1817 231° Southwest 471 542 41,000  Level Indianapolis Center
09:01AM 38.0694 -82.3072 231° Southwest 466 536 41,000  Level Indianapolis Center
09:03AM 37.9886 -82.4344 231° Southwest 463 533 41,000  Level Indianapolis Center
09:04AM 37.9069 -82.5589 230° Southwest 459 528 41,000  Level Indianapolis Center
09:05AM 37.8247 -82.6867 231° Southwest 464 534 41,000  Level Indianapolis Center
09:06AM 37.7428 -82.8125 231° Southwest 462 532 41,000  Level Indianapolis Center
09:07AM 37.6469 -82.9600 231° Southwest 464 534 41,000  Level Indianapolis Center
09:08AM 37.5647 -83.0853 230° Southwest 464 534 41,000  Level Indianapolis Center
09:09AM 37.4833 -83.2103 231° Southwest 463 533 41,000  Level Indianapolis Center
09:10AM 37.4003 -83.3358 230° Southwest 466 536 41,000  Level Indianapolis Center
09:11AM 37.3172 -83.4608 230° Southwest 468 539 41,000  Level Indianapolis Center
09:12AM 37.2192 -83.6064 230° Southwest 469 540 41,000  Level Indianapolis Center
09:13AM 37.1356 -83.7325 230° Southwest 473 544 41,000  Level Indianapolis Center
09:14AM 37.0517 -83.8569 230° Southwest 471 542 41,000  Level Indianapolis Center
09:15AM 36.9683 -83.9819 230° Southwest 468 539 41,000  Level Indianapolis Center
09:16AM 36.8836 -84.1061 230° Southwest 469 540 41,000  Level Indianapolis Center
09:17AM 36.7853 -84.2517 230° Southwest 470 541 41,000  Level Indianapolis Center
09:18AM 36.7003 -84.3753 229° Southwest 470 541 41,000  Level Indianapolis Center
09:19AM 36.6169 -84.4994 230° Southwest 468 539 41,000  Level Indianapolis Center
09:20AM 36.5306 -84.6231 229° Southwest 467 537 41,000  Level Indianapolis Center
09:21AM 36.4458 -84.7458 229° Southwest 468 539 41,000  Level Indianapolis Center
09:22AM 36.3608 -84.8686 229° Southwest 470 541 41,000  Level Indianapolis Center
09:23AM 36.2589 -85.0150 229° Southwest 471 542 41,000  Level Indianapolis Center
09:24AM 36.1742 -85.1375 229° Southwest 473 544 41,000  Level Indianapolis Center
09:25AM 36.0881 -85.2583 229° Southwest 473 544 41,000  Level Indianapolis Center
09:26AM 36.0031 -85.3783 229° Southwest 470 541 41,000  Level Indianapolis Center
09:27AM 35.9333 -85.4758 229° Southwest 471 542 41,000  Level Memphis Center
09:29AM 35.7547 -85.7303 229° Southwest 457 526 41,000  Level Atlanta Center
09:30AM 35.6717 -85.8461 229° Southwest 457 526 41,000  Level Atlanta Center
09:31AM 35.5864 -85.9642 228° Southwest 457 526 41,000  Level Atlanta Center
09:32AM 35.5031 -86.0822 229° Southwest 457 526 41,000  Level Atlanta Center
09:33AM 35.4114 -86.1997 226° Southwest 464 534 41,000  Level Atlanta Center
09:34AM 35.3281 -86.3172 229° Southwest 465 535 41,000  Level Atlanta Center
09:35AM 35.2422 -86.4369 229° Southwest 465 535 41,000  Level Atlanta Center
09:36AM 35.1628 -86.5489 229° Southwest 460 529 41,000  Level Atlanta Center
09:37AM 35.0769 -86.6656 228° Southwest 455 524 41,000  Level Atlanta Center
09:38AM 35.0314 -86.7256 227° Southwest 452 520 41,000  Level Memphis Center
09:39AM 34.9489 -86.8381 228° Southwest 452 520 41,000  Level Memphis Center
09:40AM 34.8567 -86.9658 229° Southwest 458 527 41,000  Level Memphis Center
09:41AM 34.7719 -87.0806 228° Southwest 453 521 41,000  Level Memphis Center
09:42AM 34.6894 -87.1950 229° Southwest 447 514 41,000  Level Memphis Center
09:43AM 34.6044 -87.3014 226° Southwest 453 521 41,000  Level Memphis Center
09:44AM 34.5236 -87.4103 228° Southwest 443 510 41,000  Level Memphis Center
09:45AM 34.4344 -87.5242 227° Southwest 443 510 41,000  Level Memphis Center
09:46AM 34.3342 -87.6056 214° Southwest 453 521 41,000  Level Memphis Center
09:47AM 34.2231 -87.6744 207° Southwest 453 521 41,000  Level Memphis Center
09:48AM 34.1139 -87.7406 207° Southwest 448 516 41,000  Level Memphis Center
09:49AM 34.0189 -87.8011 208° Southwest 440 506 41,000  Level Memphis Center
09:50AM 33.9056 -87.8694 207° Southwest 440 506 41,000 -420 Level Memphis Center
09:51AM 33.7861 -87.9503 209° Southwest 446 513 40,200 -1,020 Descending Memphis Center
09:52AM 33.6811 -88.0156 207° Southwest 441 507 39,000 -1,560 Descending Memphis Center
09:53AM 33.5694 -88.0836 207° Southwest 446 513 37,100 -1,860 Descending Memphis Center
09:54AM 33.4581 -88.1511 207° Southwest 446 513 35,300 -1,800 Descending Memphis Center
09:55AM 33.3528 -88.2183 208° Southwest 441 507 33,600 -1,860 Descending Memphis Center
09:56AM 33.2817 -88.3369 234° Southwest 435 501 31,600 -2,100 Descending Memphis Center
09:57AM 33.2169 -88.4750 241° Southwest 457 526 29,400 -2,280 Descending Memphis Center
09:58AM 33.1461 -88.6156 239° Southwest 477 549 27,100 -2,280 Descending Memphis Center
09:59AM 33.0789 -88.7531 240° Southwest 488 562 24,900 -2,220 Descending Memphis Center
10:00AM 33.0139 -88.8831 239° Southwest 478 550 22,700 -2,160 Descending Memphis Center
10:01AM 32.9486 -89.0131 239° Southwest 473 544 20,600 -2,100 Descending Memphis Center
10:02AM 32.9144 -89.1397 252° West 473 544 18,600 -1,800 Descending Memphis Center
10:03AM 32.9197 -89.2856 273° West 445 512 17,100 -1,680 Descending Memphis Center
10:04AM 32.9272 -89.4267 274° West 445 512 15,300 -1,080 Descending Memphis Center
10:05AM 32.9344 -89.5678 274° West 440 506 15,000 -180 Descending Memphis Center
10:06AM 32.9292 -89.7064 267° West 433 498 15,000 -1,080 Level Memphis Center
10:07AM 32.8586 -89.8156 232° Southwest 393 452 12,900 -2,520 Descending Memphis Center
10:08AM 32.7900 -89.8853 221° Southwest 345 397 10,000 -2,820 Descending Memphis Center
10:09AM 32.7317 -89.9425 220° Southwest 320 368 7,300 -2,700 Descending Memphis Center
10:10AM 32.6756 -90.0019 222° Southwest 292 336 4,700 -2,520 Descending Memphis Center
10:11AM 32.6319 -90.0686 232° Southwest 275 316 2,300 -1,380 Descending Memphis Center
10:12AM 32.5925 -90.1306 233° Southwest 256 295 2,000 -180 Descending Memphis Center
10:13AM 32.5592 -90.1847 234° Southwest 228 262 2,000  Level Memphis Center
10:14AM 32.5300 -90.2342 235° Southwest 216 249 2,000  Level Memphis Center
10:15AM 32.4903 -90.2736 220° Southwest 203 234 2,000  Level Memphis Center
10:16AM 32.4422 -90.2711 177° South 171 197 2,000 -240 Level Memphis Center
10:17AM 32.4025 -90.2539 160° South 152 175 1,600 -600 Descending Memphis Center
10:18AM 32.3650 -90.2344 156° South 147 169 900 -480 Descending Memphis Center
10:19AM 32.3192 -90.2269 172° South 147 169 700 2,520 Descending Memphis Center
10:20AM 32.2772 -90.2147 166° South 147 169 6,000 2,640 Climbing Memphis Center
10:21AM 32.2356 -90.2025 166° South 147 169 6,000  Level Memphis Center
10:23AM 32.3333 -90.2167 348° North  Level FlightAware Approximate